createdAt,value
2017-09-30T00:01:12.790Z,13.00
2017-09-30T00:04:23.636Z,13.10
2017-09-30T00:07:34.251Z,13.00
2017-09-30T00:10:45.123Z,12.90
2017-09-30T00:13:55.042Z,12.90
2017-09-30T00:17:05.183Z,12.90
2017-09-30T00:20:15.738Z,12.90
2017-09-30T00:23:25.877Z,12.80
2017-09-30T00:26:36.652Z,12.70
2017-09-30T00:29:47.986Z,12.60
2017-09-30T00:32:59.597Z,12.50
2017-09-30T00:36:09.568Z,12.40
2017-09-30T00:39:20.258Z,12.30
2017-09-30T00:42:30.505Z,12.20
2017-09-30T00:45:41.352Z,12.30
2017-09-30T00:48:51.335Z,12.30
2017-09-30T00:52:02.011Z,12.10
2017-09-30T00:55:12.825Z,12.10
2017-09-30T00:58:23.209Z,12.10
2017-09-30T01:01:34.069Z,12.00
2017-09-30T01:04:44.085Z,12.10
2017-09-30T01:07:55.654Z,12.10
2017-09-30T01:11:05.627Z,12.10
2017-09-30T01:14:15.620Z,12.20
2017-09-30T01:17:26.322Z,12.20
2017-09-30T01:20:36.600Z,12.20
2017-09-30T01:23:46.974Z,12.20
2017-09-30T01:26:57.203Z,12.20
2017-09-30T01:30:06.948Z,12.10
2017-09-30T01:33:16.903Z,12.10
2017-09-30T01:36:27.678Z,12.10
2017-09-30T01:39:39.066Z,12.10
2017-09-30T01:42:49.281Z,12.00
2017-09-30T01:45:59.800Z,12.10
2017-09-30T01:49:10.053Z,12.10
2017-09-30T01:52:20.553Z,12.10
2017-09-30T01:55:30.959Z,12.10
2017-09-30T01:58:41.897Z,12.00
2017-09-30T02:01:52.046Z,12.00
2017-09-30T02:05:02.526Z,12.00
2017-09-30T02:08:12.566Z,11.90
2017-09-30T02:11:22.866Z,11.80
2017-09-30T02:14:34.233Z,11.80
2017-09-30T02:17:44.538Z,11.80
2017-09-30T02:20:55.475Z,11.80
2017-09-30T02:24:05.492Z,11.80
2017-09-30T02:27:15.460Z,11.80
2017-09-30T02:30:25.602Z,11.90
2017-09-30T02:33:35.485Z,11.80
2017-09-30T02:36:45.320Z,11.70
2017-09-30T02:39:56.177Z,11.80
2017-09-30T02:43:07.272Z,11.80
2017-09-30T02:46:17.555Z,11.70
2017-09-30T02:49:27.691Z,11.80
2017-09-30T02:52:38.504Z,11.90
2017-09-30T02:55:48.673Z,11.90
2017-09-30T02:58:59.724Z,11.90
2017-09-30T03:02:10.427Z,11.90
2017-09-30T03:05:20.345Z,11.90
2017-09-30T03:08:30.577Z,11.90
2017-09-30T03:11:40.798Z,11.90
2017-09-30T03:14:51.167Z,11.80
2017-09-30T03:18:01.189Z,11.80
2017-09-30T03:21:12.708Z,11.80
2017-09-30T03:24:23.672Z,11.80
2017-09-30T03:27:34.024Z,11.70
2017-09-30T03:30:44.113Z,11.70
2017-09-30T03:33:54.776Z,11.70
2017-09-30T03:37:05.909Z,11.80
2017-09-30T03:40:16.221Z,11.80
2017-09-30T03:43:26.101Z,11.80
2017-09-30T03:46:36.469Z,11.70
2017-09-30T03:49:46.529Z,11.70
2017-09-30T03:52:57.363Z,11.70
2017-09-30T03:56:09.783Z,11.60
2017-09-30T03:59:20.163Z,11.60
2017-09-30T04:02:30.236Z,11.60
2017-09-30T04:05:40.935Z,11.60
2017-09-30T04:08:50.916Z,11.70
2017-09-30T04:12:00.863Z,11.60
2017-09-30T04:15:10.709Z,11.70
2017-09-30T04:18:20.774Z,11.70
2017-09-30T04:21:31.372Z,11.60
2017-09-30T04:24:41.940Z,11.60
2017-09-30T04:27:53.652Z,11.60
2017-09-30T04:31:03.900Z,11.60
2017-09-30T04:34:13.906Z,11.60
2017-09-30T04:37:24.675Z,11.60
2017-09-30T04:40:34.664Z,11.60
2017-09-30T04:43:44.620Z,11.50
2017-09-30T04:46:55.425Z,11.40
2017-09-30T04:50:06.179Z,11.40
2017-09-30T04:53:16.606Z,11.40
2017-09-30T04:56:28.151Z,11.20
2017-09-30T04:59:39.833Z,11.20
2017-09-30T05:02:51.384Z,11.20
2017-09-30T05:06:04.267Z,11.10
2017-09-30T05:09:15.130Z,11.10
2017-09-30T05:12:26.565Z,11.20
2017-09-30T05:15:36.866Z,11.20
2017-09-30T05:18:47.208Z,11.20
2017-09-30T05:21:57.285Z,11.20
2017-09-30T05:25:06.944Z,11.30
2017-09-30T05:28:17.289Z,11.30
2017-09-30T05:31:27.533Z,11.30
2017-09-30T05:34:38.440Z,11.20
2017-09-30T05:37:55.358Z,11.10
2017-09-30T05:41:05.537Z,11.20
2017-09-30T05:44:16.398Z,11.30
2017-09-30T05:47:26.458Z,11.30
2017-09-30T05:50:37.285Z,11.40
2017-09-30T05:53:48.302Z,11.40
2017-09-30T05:56:59.150Z,11.40
2017-09-30T06:00:09.526Z,11.40
2017-09-30T06:03:19.628Z,11.50
2017-09-30T06:06:29.828Z,11.50
2017-09-30T06:09:41.617Z,11.60
2017-09-30T06:12:52.063Z,11.60
2017-09-30T06:16:03.140Z,11.70
2017-09-30T06:19:13.797Z,11.80
2017-09-30T06:22:24.131Z,11.80
2017-09-30T06:25:36.091Z,12.00
2017-09-30T06:28:46.583Z,11.90
2017-09-30T06:31:57.539Z,12.00
2017-09-30T06:35:08.812Z,12.20
2017-09-30T06:38:19.802Z,12.30
2017-09-30T06:41:30.538Z,12.40
2017-09-30T06:44:42.377Z,12.40
2017-09-30T06:47:53.136Z,12.50
2017-09-30T06:51:03.857Z,12.60
2017-09-30T06:54:15.985Z,12.80
2017-09-30T06:57:26.145Z,12.80
2017-09-30T07:00:36.336Z,13.00
2017-09-30T07:03:47.237Z,13.00
2017-09-30T07:06:58.758Z,13.30
2017-09-30T07:10:08.963Z,13.30
2017-09-30T07:13:21.137Z,13.50
2017-09-30T07:16:32.164Z,13.70
2017-09-30T07:19:42.413Z,13.60
2017-09-30T07:22:54.116Z,13.80
2017-09-30T07:26:04.934Z,14.00
2017-09-30T07:29:15.974Z,14.10
2017-09-30T07:32:26.349Z,14.30
2017-09-30T07:35:36.579Z,14.40
2017-09-30T07:38:47.425Z,14.50
2017-09-30T07:41:57.480Z,14.70
2017-09-30T07:45:07.321Z,14.80
2017-09-30T07:48:17.597Z,14.90
2017-09-30T07:51:28.398Z,15.10
2017-09-30T07:54:39.000Z,15.10
2017-09-30T07:57:49.571Z,15.30
2017-09-30T08:01:00.432Z,15.40
2017-09-30T08:04:11.980Z,15.70
2017-09-30T08:07:22.831Z,15.70
2017-09-30T08:10:33.101Z,15.90
2017-09-30T08:13:44.698Z,16.00
2017-09-30T08:16:54.726Z,16.20
2017-09-30T08:20:07.639Z,16.40
2017-09-30T08:23:24.491Z,16.40
2017-09-30T08:26:37.433Z,16.50
2017-09-30T08:29:50.532Z,16.70
2017-09-30T08:33:03.496Z,16.80
2017-09-30T08:36:14.306Z,16.90
2017-09-30T08:39:24.993Z,17.10
2017-09-30T08:42:35.046Z,17.20
2017-09-30T08:45:45.307Z,17.30
2017-09-30T08:48:55.543Z,17.40
2017-09-30T08:52:06.232Z,17.50
2017-09-30T08:55:16.223Z,17.70
2017-09-30T08:58:26.426Z,17.80
2017-09-30T09:01:37.176Z,17.90
2017-09-30T09:04:47.746Z,18.00
2017-09-30T09:07:57.785Z,18.10
2017-09-30T09:11:07.959Z,18.20
2017-09-30T09:14:18.273Z,18.30
2017-09-30T09:17:28.538Z,18.50
2017-09-30T09:20:39.675Z,18.60
2017-09-30T09:23:50.575Z,18.60
2017-09-30T09:27:00.727Z,18.80
2017-09-30T09:30:12.590Z,18.90
2017-09-30T09:33:23.418Z,19.00
2017-09-30T09:36:34.556Z,19.00
2017-09-30T09:39:45.924Z,19.20
2017-09-30T09:42:59.408Z,19.20
2017-09-30T09:46:12.347Z,19.40
2017-09-30T09:49:23.924Z,19.50
2017-09-30T09:52:45.442Z,19.60
2017-09-30T09:55:56.780Z,19.70
2017-09-30T09:59:07.589Z,19.90
2017-09-30T10:02:17.636Z,19.90
2017-09-30T10:05:27.425Z,20.10
2017-09-30T10:08:37.492Z,20.20
2017-09-30T10:11:48.250Z,20.20
2017-09-30T10:14:58.172Z,20.20
2017-09-30T10:18:08.059Z,20.30
2017-09-30T10:21:18.799Z,20.30
2017-09-30T10:24:28.798Z,20.30
2017-09-30T10:27:38.843Z,20.30
2017-09-30T10:30:49.961Z,20.40
2017-09-30T10:34:00.491Z,20.30
2017-09-30T10:37:11.190Z,20.30
2017-09-30T10:40:23.104Z,20.30
2017-09-30T10:43:34.353Z,20.20
2017-09-30T10:46:44.732Z,20.30
2017-09-30T10:49:56.272Z,20.40
2017-09-30T10:53:07.754Z,20.40
2017-09-30T10:56:18.597Z,20.40
2017-09-30T10:59:29.399Z,20.50
2017-09-30T11:02:41.001Z,20.60
2017-09-30T11:05:50.939Z,20.60
2017-09-30T11:09:01.874Z,20.70
2017-09-30T11:12:11.708Z,20.70
2017-09-30T11:15:22.449Z,20.50
2017-09-30T11:18:32.639Z,20.40
2017-09-30T11:21:42.440Z,20.50
2017-09-30T11:24:52.225Z,20.50
2017-09-30T11:28:02.197Z,20.70
2017-09-30T11:31:12.383Z,20.80
2017-09-30T11:34:22.150Z,21.00
2017-09-30T11:37:32.105Z,21.00
2017-09-30T11:40:41.822Z,21.00
2017-09-30T11:43:51.844Z,21.00
2017-09-30T11:47:01.799Z,21.00
2017-09-30T11:50:11.673Z,21.00
2017-09-30T11:53:21.416Z,21.10
2017-09-30T11:56:31.502Z,21.00
2017-09-30T11:59:41.783Z,21.00
2017-09-30T12:02:51.570Z,20.80
2017-09-30T12:06:01.354Z,20.90
2017-09-30T12:09:11.312Z,21.10
2017-09-30T12:12:22.052Z,21.20
2017-09-30T12:15:39.375Z,21.30
2017-09-30T12:18:50.631Z,21.30
2017-09-30T12:22:00.588Z,21.30
2017-09-30T12:25:10.638Z,21.30
2017-09-30T12:28:20.525Z,21.30
2017-09-30T12:31:30.313Z,21.30
2017-09-30T12:34:40.188Z,21.30
2017-09-30T12:37:49.926Z,21.30
2017-09-30T12:40:59.818Z,21.30
2017-09-30T12:44:09.694Z,21.30
2017-09-30T12:47:20.311Z,21.30
2017-09-30T12:50:31.042Z,21.20
2017-09-30T12:53:42.034Z,21.20
2017-09-30T12:56:52.250Z,21.20
2017-09-30T13:00:02.054Z,21.10
2017-09-30T13:03:14.350Z,21.00
2017-09-30T13:06:24.304Z,20.90
2017-09-30T13:09:34.995Z,20.90
2017-09-30T13:12:44.853Z,20.90
2017-09-30T13:15:56.152Z,20.80
2017-09-30T13:19:06.290Z,20.70
2017-09-30T13:22:16.202Z,20.80
2017-09-30T13:25:25.991Z,20.70
2017-09-30T13:28:35.884Z,20.60
2017-09-30T13:31:46.526Z,20.60
2017-09-30T13:34:56.309Z,20.50
2017-09-30T13:38:06.124Z,20.50
2017-09-30T13:41:15.959Z,20.40
2017-09-30T13:44:26.593Z,20.30
2017-09-30T13:47:36.750Z,20.30
2017-09-30T13:50:47.082Z,20.30
2017-09-30T13:53:57.753Z,20.30
2017-09-30T13:57:08.520Z,20.20
2017-09-30T14:00:19.985Z,20.20
2017-09-30T14:03:30.136Z,20.20
2017-09-30T14:06:39.996Z,20.20
2017-09-30T14:09:49.786Z,20.20
2017-09-30T14:13:00.943Z,20.10
2017-09-30T14:16:11.507Z,20.10
2017-09-30T14:19:21.619Z,20.00
2017-09-30T14:22:31.619Z,20.00
2017-09-30T14:25:41.392Z,19.90
2017-09-30T14:28:51.332Z,19.90
2017-09-30T14:32:02.054Z,19.70
2017-09-30T14:35:12.326Z,19.70
2017-09-30T14:38:22.392Z,19.70
2017-09-30T14:41:32.954Z,19.60
2017-09-30T14:44:43.270Z,19.60
2017-09-30T14:47:54.128Z,19.40
2017-09-30T14:51:04.027Z,19.30
2017-09-30T14:54:14.195Z,19.30
2017-09-30T14:57:24.194Z,19.20
2017-09-30T15:00:34.186Z,19.10
2017-09-30T15:03:44.068Z,19.00
2017-09-30T15:06:55.588Z,18.80
2017-09-30T15:10:05.583Z,18.80
2017-09-30T15:13:15.423Z,18.60
2017-09-30T15:16:25.354Z,18.60
2017-09-30T15:19:35.416Z,18.60
2017-09-30T15:22:45.284Z,18.50
2017-09-30T15:25:56.164Z,18.30
2017-09-30T15:29:06.615Z,18.30
2017-09-30T15:32:16.734Z,18.30
2017-09-30T15:35:27.735Z,18.20
2017-09-30T15:38:39.309Z,18.10
2017-09-30T15:41:50.064Z,18.00
2017-09-30T15:45:00.290Z,18.00
2017-09-30T15:48:10.353Z,17.90
2017-09-30T15:51:20.325Z,17.80
2017-09-30T15:54:30.197Z,17.60
2017-09-30T15:57:40.231Z,17.60
2017-09-30T16:00:50.334Z,17.50
2017-09-30T16:04:01.027Z,17.30
2017-09-30T16:07:11.330Z,17.20
2017-09-30T16:10:21.343Z,17.30
2017-09-30T16:13:31.382Z,17.30
2017-09-30T16:16:41.263Z,17.10
2017-09-30T16:19:51.206Z,17.00
2017-09-30T16:23:01.323Z,17.00
2017-09-30T16:26:11.226Z,16.90
2017-09-30T16:29:21.069Z,16.80
2017-09-30T16:32:31.051Z,16.80
2017-09-30T16:35:41.221Z,16.80
2017-09-30T16:38:51.961Z,16.70
2017-09-30T16:42:02.108Z,16.70
2017-09-30T16:45:11.992Z,16.70
2017-09-30T16:48:22.673Z,16.50
2017-09-30T16:51:32.931Z,16.50
2017-09-30T16:54:42.932Z,16.40
2017-09-30T16:57:52.666Z,16.40
2017-09-30T17:01:02.858Z,16.30
2017-09-30T17:04:13.096Z,16.10
2017-09-30T17:07:23.705Z,16.10
2017-09-30T17:10:33.542Z,16.10
2017-09-30T17:13:43.381Z,16.10
2017-09-30T17:16:54.123Z,15.90
2017-09-30T17:20:04.935Z,15.90
2017-09-30T17:23:15.245Z,15.80
2017-09-30T17:26:26.018Z,15.70
2017-09-30T17:29:36.291Z,15.70
2017-09-30T17:32:46.769Z,15.70
2017-09-30T17:35:56.787Z,15.60
2017-09-30T17:39:07.436Z,15.60
2017-09-30T17:42:17.580Z,15.50
2017-09-30T17:45:27.566Z,15.50
2017-09-30T17:48:38.298Z,15.50
2017-09-30T17:51:48.395Z,15.40
2017-09-30T17:54:58.264Z,15.40
2017-09-30T17:58:08.292Z,15.40
2017-09-30T18:01:18.266Z,15.30
2017-09-30T18:04:28.081Z,15.30
2017-09-30T18:07:38.607Z,15.30
2017-09-30T18:10:49.941Z,15.20
2017-09-30T18:14:01.621Z,15.20
2017-09-30T18:17:13.538Z,15.20
2017-09-30T18:20:25.095Z,15.20
2017-09-30T18:23:36.331Z,15.20
2017-09-30T18:26:48.084Z,15.20
2017-09-30T18:29:58.526Z,15.20
2017-09-30T18:33:08.467Z,15.10
2017-09-30T18:36:18.391Z,15.10
2017-09-30T18:39:28.238Z,15.10
2017-09-30T18:42:38.189Z,15.10
2017-09-30T18:45:48.237Z,15.10
2017-09-30T18:48:59.073Z,15.00
2017-09-30T18:52:09.032Z,15.10
2017-09-30T18:55:18.923Z,15.00
2017-09-30T18:58:28.676Z,15.00
2017-09-30T19:01:39.346Z,14.90
2017-09-30T19:04:49.472Z,14.90
2017-09-30T19:07:59.428Z,15.00
2017-09-30T19:11:09.338Z,15.00
2017-09-30T19:14:19.413Z,15.00
2017-09-30T19:17:30.163Z,14.90
2017-09-30T19:20:40.246Z,14.90
2017-09-30T19:23:50.451Z,14.90
2017-09-30T19:27:00.297Z,14.90
2017-09-30T19:30:10.350Z,14.90
2017-09-30T19:33:20.356Z,14.80
2017-09-30T19:36:30.317Z,14.90
2017-09-30T19:39:41.187Z,14.80
2017-09-30T19:42:52.193Z,14.80
2017-09-30T19:46:02.721Z,14.80
2017-09-30T19:49:12.765Z,14.80
2017-09-30T19:52:23.560Z,14.80
2017-09-30T19:55:34.079Z,14.80
2017-09-30T19:58:44.269Z,14.70
2017-09-30T20:01:54.830Z,14.80
2017-09-30T20:05:05.001Z,14.80
2017-09-30T20:08:15.462Z,14.80
2017-09-30T20:11:26.597Z,14.80
2017-09-30T20:14:36.589Z,14.70
2017-09-30T20:17:46.643Z,14.80
2017-09-30T20:20:57.481Z,14.80
2017-09-30T20:24:08.268Z,14.80
2017-09-30T20:27:18.935Z,14.80
2017-09-30T20:30:29.662Z,14.80
2017-09-30T20:33:40.810Z,14.80
2017-09-30T20:36:51.292Z,14.80
2017-09-30T20:40:01.210Z,14.80
2017-09-30T20:43:12.600Z,14.90
2017-09-30T20:46:22.867Z,14.80
2017-09-30T20:49:32.803Z,14.80
2017-09-30T20:52:42.736Z,14.80
2017-09-30T20:55:52.722Z,14.80
2017-09-30T20:59:03.500Z,14.90
2017-09-30T21:02:13.753Z,14.90
2017-09-30T21:05:24.792Z,14.90
2017-09-30T21:08:35.841Z,14.90
2017-09-30T21:11:48.790Z,14.90
2017-09-30T21:14:59.325Z,14.90
2017-09-30T21:18:09.965Z,14.90
2017-09-30T21:21:20.215Z,14.90
2017-09-30T21:24:30.776Z,14.90
2017-09-30T21:27:40.886Z,14.90
2017-09-30T21:30:51.342Z,14.90
2017-09-30T21:34:02.817Z,14.90
2017-09-30T21:37:14.750Z,14.90
2017-09-30T21:40:26.685Z,14.90
2017-09-30T21:43:37.687Z,14.90
2017-09-30T21:46:48.547Z,14.90
2017-09-30T21:49:59.264Z,14.90
2017-09-30T21:53:09.316Z,14.90
2017-09-30T21:56:20.042Z,14.90
2017-09-30T21:59:30.211Z,14.90
2017-09-30T22:02:41.704Z,14.90
2017-09-30T22:05:51.768Z,14.90
2017-09-30T22:09:03.260Z,14.90
2017-09-30T22:12:13.080Z,14.90
2017-09-30T22:15:24.702Z,14.90
2017-09-30T22:18:34.498Z,14.90
2017-09-30T22:21:46.009Z,14.90
2017-09-30T22:24:56.393Z,14.90
2017-09-30T22:28:07.283Z,14.90
2017-09-30T22:31:17.957Z,14.90
2017-09-30T22:34:29.298Z,14.90
2017-09-30T22:37:39.464Z,14.80
2017-09-30T22:40:50.239Z,14.80
2017-09-30T22:44:00.196Z,14.80
2017-09-30T22:47:11.144Z,14.90
2017-09-30T22:50:21.016Z,14.80
2017-09-30T22:53:32.071Z,14.80
2017-09-30T22:56:42.045Z,14.80
2017-09-30T22:59:52.529Z,14.80
2017-09-30T23:03:02.497Z,14.80
2017-09-30T23:06:12.593Z,14.80
2017-09-30T23:09:23.640Z,14.80
2017-09-30T23:12:34.278Z,14.80
2017-09-30T23:15:45.265Z,14.80
2017-09-30T23:18:56.375Z,14.80
2017-09-30T23:22:06.652Z,14.80
2017-09-30T23:25:17.325Z,14.90
2017-09-30T23:28:27.583Z,14.80
2017-09-30T23:31:38.201Z,14.80
2017-09-30T23:34:48.999Z,14.80
2017-09-30T23:37:58.928Z,14.70
2017-09-30T23:41:08.796Z,14.80
2017-09-30T23:44:18.636Z,14.70
2017-09-30T23:47:28.562Z,14.80
2017-09-30T23:50:39.034Z,14.80
2017-09-30T23:53:49.810Z,14.80
2017-09-30T23:57:00.703Z,14.70
